Latest Weather Observations for Point Perpendicular

IDN60801

Issued at 10:35 am EDT Saturday 29 November 2014 (issued every 30 minutes, with the page automatically refreshed every 10 minutes)

About weather observations | Map of weather stations | Latest weather observations for NSW | Other Formats
Station Details ID: 068151 Name: POINT PERPENDICULAR AWS Lat: -35.09 Lon: 150.80 Height: 85.0 m
Data from the previous 72 hours. | See also: Recent months at Point Perpendicular
Date/Time
EDT
Temp
°C
App
Temp
°C
Dew
Point
Rel
Hum
%
Delta-T
°C
Wind Press
QNH
hPa
Press
MSL
hPa
Rain
since 9 am
mm
Dir
 
Spd
km/h
Gust
km/h
Spd
kts
Gust
kts
29/10:30am 23.5 21.1 16.3 64 4.4 NE 24 33 13 18 1018.5 1018.3 0.0
29/10:00am 23.3 21.2 17.1 68 3.8 NNE 24 32 13 17 1018.9 1018.7 0.0
29/09:30am 22.0 20.4 16.1 69 3.6 NE 19 30 10 16 1019.0 1018.8 0.0
29/09:00am 22.0 20.1 15.8 68 3.7 NNE 20 30 11 16 1019.5 1019.3 0.0
29/08:30am 21.3 19.4 15.2 68 3.6 N 19 26 10 14 1019.8 1019.6 0.0
29/08:00am 20.1 19.8 15.5 75 2.7 N 11 17 6 9 1019.7 1019.5 0.0
29/07:30am 19.1 19.5 15.2 78 2.3 N 7 13 4 7 1019.7 1019.5 0.0
29/07:00am 18.1 18.7 15.2 83 1.7 NNW 6 11 3 6 1019.3 1019.1 0.0
29/06:30am 16.9 17.4 15.6 92 0.8 NNW 7 7 4 4 1019.1 1018.9 0.0
29/06:00am 15.9 15.4 13.9 88 1.1 N 9 9 5 5 1019.1 1018.9 0.0
29/05:30am 16.5 16.7 14.3 87 1.3 NW 6 7 3 4 1019.0 1018.8 0.0
29/05:00am 16.9 17.2 14.5 86 1.4 NW 6 7 3 4 1019.2 1019.0 0.0
29/04:30am 16.8 17.0 14.1 84 1.5 NNW 6 6 3 3 1019.2 1019.0 0.0
29/04:00am 17.2 17.4 14.1 82 1.8 NNW 6 7 3 4 1019.2 1019.0 0.0
29/03:30am 17.3 17.6 14.4 83 1.7 N 6 7 3 4 1019.4 1019.2 0.0
29/03:00am 17.0 17.0 14.3 84 1.5 N 7 7 4 4 1019.5 1019.3 0.0
29/02:30am 16.9 17.0 14.5 86 1.4 N 7 9 4 5 1019.8 1019.6 0.0
29/02:00am 16.7 16.3 14.2 85 1.4 N 9 11 5 6 1019.9 1019.7 0.0
29/01:30am 17.2 16.9 14.3 83 1.7 N 9 11 5 6 1020.1 1019.9 0.0
29/01:00am 17.5 16.8 14.2 81 1.9 N 11 17 6 9 1020.3 1020.1 0.0
29/12:30am 17.8 16.3 14.1 79 2.1 N 15 22 8 12 1020.4 1020.2 0.0
29/12:00am 18.0 16.0 13.9 77 2.3 N 17 26 9 14 1020.6 1020.4 0.0
 
Date/Time
EDT
Temp
°C
App
Temp
°C
Dew
Point
Rel
Hum
%
Delta-T
°C
Wind Press
QNH
hPa
Press
MSL
hPa
Rain
since 9 am
mm
Dir
 
Spd
km/h
Gust
km/h
Spd
kts
Gust
kts
28/11:30pm 18.3 15.7 13.8 75 2.6 NNE 20 32 11 17 1020.9 1020.7 0.0
28/11:00pm 18.4 15.7 13.5 73 2.8 NE 20 30 11 16 1021.1 1020.9 0.0
28/10:30pm 18.3 15.5 13.2 72 2.9 NE 20 30 11 16 1021.2 1021.0 0.0
28/10:00pm 18.4 14.8 13.0 71 3.0 NE 24 33 13 18 1021.2 1021.0 0.0
28/09:30pm 18.5 15.7 13.1 71 3.1 NE 20 32 11 17 1021.1 1020.9 0.0
28/09:00pm 18.4 15.2 13.0 71 3.0 NE 22 33 12 18 1020.9 1020.7 0.0
28/08:30pm 18.7 15.6 13.3 71 3.1 NE 22 35 12 19 1020.3 1020.1 0.0
28/08:00pm 18.6 14.7 13.2 71 3.1 NE 26 35 14 19 1020.2 1020.0 0.0
28/07:30pm 18.9 15.3 13.1 69 3.3 NE 24 39 13 21 1020.1 1019.9 0.0
28/07:00pm 19.6 16.4 13.1 66 3.7 NE 22 33 12 18 1020.1 1019.9 0.0
28/06:30pm 20.3 16.8 13.3 64 4.0 NE 24 33 13 18 1020.0 1019.8 0.0
28/06:00pm 20.7 16.6 12.7 60 4.5 NE 26 35 14 19 1019.9 1019.7 0.0
28/05:30pm 20.7 16.0 12.1 58 4.8 NE 28 39 15 21 1019.9 1019.7 0.0
28/05:00pm 21.2 17.7 12.1 56 5.1 NE 22 32 12 17 1020.2 1020.0 0.0
28/04:30pm 21.4 17.8 12.0 55 5.3 NE 22 32 12 17 1020.5 1020.3 0.0
28/04:00pm 21.2 18.1 12.3 57 5.0 NE 20 32 11 17 1020.7 1020.5 0.0
28/03:30pm 21.7 18.6 12.3 55 5.3 NE 20 32 11 17 1020.9 1020.7 0.0
28/03:00pm 21.9 18.5 12.5 55 5.3 NE 22 35 12 19 1021.2 1021.0 0.0
28/02:30pm 21.4 18.7 11.7 54 5.4 ENE 17 24 9 13 1021.6 1021.4 0.0
28/02:00pm 20.7 17.5 11.3 55 5.2 ENE 19 26 10 14 1022.0 1021.8 0.0
28/01:30pm 20.7 18.0 11.6 56 5.1 E 17 26 9 14 1022.5 1022.3 0.0
28/01:00pm 20.6 17.4 11.2 55 5.2 ENE 19 30 10 16 1022.8 1022.6 0.0
28/12:30pm 20.6 17.4 11.2 55 5.2 ENE 19 24 10 13 1023.2 1023.0 0.0
28/12:00pm 21.1 18.7 11.4 54 5.4 ENE 15 26 8 14 1023.6 1023.4 0.0
28/11:30am 21.1 18.8 11.7 55 5.3 ENE 15 22 8 12 1023.9 1023.7 0.0
28/11:00am 19.9 17.6 10.6 55 5.0 ENE 13 24 7 13 1024.1 1023.9 0.0
28/10:30am 20.7 18.3 9.9 50 5.8 ENE 13 26 7 14 1024.3 1024.1 0.0
28/10:00am 20.2 18.1 9.7 51 5.6 E 11 15 6 8 1024.2 1024.0 0.0
28/09:30am 20.5 18.8 10.0 51 5.7 ESE 9 15 5 8 1024.3 1024.1 0.0
28/09:00am 19.7 18.3 10.9 57 4.8 SE 9 15 5 8 1024.3 1024.1 0.0
28/08:30am 19.3 18.0 11.1 59 4.5 SE 9 13 5 7 1024.4 1024.2 0.0
28/08:00am 18.4 17.3 11.9 66 3.6 S 9 13 5 7 1024.2 1024.0 0.0
28/07:30am 17.9 17.7 11.7 67 3.4 SW 4 7 2 4 1023.8 1023.6 0.0
28/07:00am 17.4 17.3 13.3 77 2.3 SW 6 7 3 4 1023.6 1023.4 0.0
28/06:30am 16.5 16.5 13.6 83 1.6 WSW 6 7 3 4 1023.2 1023.0 0.0
28/06:00am 16.2 16.0 12.9 81 1.8 W 6 9 3 5 1023.1 1022.9 0.0
28/05:30am 16.0 16.4 12.4 79 2.0 WSW 2 6 1 3 1023.0 1022.8 0.0
28/05:00am 17.1 16.9 10.5 65 3.5 WSW 2 6 1 3 1022.7 1022.5 0.0
28/04:30am 16.8 16.9 10.2 65 3.5 CALM 0 0 0 0 1022.6 1022.4 0.0
28/04:00am 16.2 16.5 13.3 83 1.6 SW 4 7 2 4 1022.7 1022.5 0.0
28/03:30am 16.9 16.6 13.2 79 2.1 SW 7 11 4 6 1022.9 1022.7 0.0
28/03:00am 17.4 16.5 10.5 64 3.7 S 6 9 3 5 1023.1 1022.9 0.0
28/02:30am 17.5 17.5 11.1 66 3.5 S 2 7 1 4 1023.2 1023.0 0.0
28/02:00am 17.5 16.8 11.3 67 3.4 W 6 7 3 4 1023.3 1023.2 0.0
28/01:30am 17.3 17.0 11.3 68 3.3 S 4 7 2 4 1023.8 1023.6 0.0
28/01:00am 17.4 16.9 11.9 70 3.0 SE 6 9 3 5 1024.0 1023.8 0.0
28/12:30am 17.6 17.6 12.3 71 2.9 ESE 4 7 2 4 1024.1 1023.9 0.0
28/12:00am 17.7 17.2 11.9 69 3.2 ESE 6 11 3 6 1024.5 1024.3 0.0
 
Date/Time
EDT
Temp
°C
App
Temp
°C
Dew
Point
Rel
Hum
%
Delta-T
°C
Wind Press
QNH
hPa
Press
MSL
hPa
Rain
since 9 am
mm
Dir
 
Spd
km/h
Gust
km/h
Spd
kts
Gust
kts
27/11:30pm 17.8 17.4 12.5 71 3.0 SSE 6 11 3 6 1024.7 1024.5 0.0
27/11:00pm 17.6 16.7 12.5 72 2.8 SSE 9 13 5 7 1024.9 1024.7 0.0
27/10:30pm 17.8 16.9 12.7 72 2.9 SSE 9 13 5 7 1024.9 1024.7 0.0
27/10:00pm 17.7 16.4 12.6 72 2.8 SSE 11 17 6 9 1024.9 1024.7 0.0
27/09:30pm 17.8 17.1 13.1 74 2.6 SE 9 15 5 8 1024.8 1024.6 0.0
27/09:00pm 17.8 16.6 12.9 73 2.7 SSE 11 15 6 8 1024.6 1024.4 0.0
27/08:30pm 17.9 16.9 13.4 75 2.6 SE 11 17 6 9 1024.2 1024.0 0.0
27/08:00pm 17.4 16.0 13.5 78 2.2 SSE 13 22 7 12 1024.0 1023.8 0.0
27/07:30pm 17.7 17.2 13.8 78 2.2 SE 9 17 5 9 1023.9 1023.7 0.0
27/07:00pm 17.5 16.5 13.4 77 2.3 SE 11 15 6 8 1023.7 1023.5 0.0
27/06:30pm 17.7 16.2 13.0 74 2.6 SE 13 22 7 12 1023.3 1023.2 0.0
27/06:00pm 18.0 16.6 13.5 75 2.5 SSE 13 22 7 12 1023.0 1022.8 0.0
27/05:30pm 17.9 15.6 13.0 73 2.8 SSE 17 26 9 14 1023.0 1022.8 0.0
27/05:00pm 18.2 16.5 12.6 70 3.1 SE 13 20 7 11 1023.0 1022.8 0.0
27/04:30pm 18.3 16.6 12.5 69 3.2 SSE 13 22 7 12 1023.1 1022.9 0.0
27/04:00pm 18.3 16.4 13.0 71 3.0 SSE 15 24 8 13 1023.1 1022.9 0.0
27/03:30pm 18.5 16.2 13.1 71 3.1 SSE 17 22 9 12 1023.1 1022.9 0.0
27/03:00pm 18.1 16.0 12.5 70 3.1 SSE 15 22 8 12 1023.2 1023.0 0.0
27/02:30pm 18.4 16.4 12.8 70 3.1 S 15 22 8 12 1023.2 1023.0 0.0
27/02:00pm 18.0 16.1 12.9 72 2.9 S 15 24 8 13 1023.2 1023.0 0.0
27/01:30pm 17.5 15.8 12.4 72 2.8 S 13 22 7 12 1023.1 1022.9 0.0
27/01:00pm 17.6 15.7 12.9 74 2.6 S 15 26 8 14 1023.2 1023.0 0.0
27/12:30pm 17.3 15.0 13.0 76 2.4 S 17 26 9 14 1023.3 1023.2 0.0
27/12:00pm 17.6 15.7 13.1 75 2.5 S 15 24 8 13 1023.3 1023.2 0.0
27/11:30am 17.9 15.5 12.8 72 2.9 S 17 26 9 14 1023.3 1023.2 0.0
27/11:00am 17.8 15.8 12.7 72 2.8 S 15 24 8 13 1023.3 1023.2 0.0
27/10:30am 17.9 15.2 12.8 72 2.9 SSE 19 30 10 16 1023.1 1022.9 0.0
27/10:00am 17.8 15.4 12.7 72 2.8 SSE 17 26 9 14 1023.0 1022.8 0.0
27/09:30am 17.8 15.4 12.7 72 2.9 SSE 17 28 9 15 1022.8 1022.6 0.0
27/09:00am 17.6 14.9 12.9 74 2.6 SSE 19 28 10 15 1022.7 1022.5 16.8
27/08:30am 17.6 14.8 13.3 76 2.4 SE 20 30 11 16 1022.4 1022.2 16.8
27/08:00am 17.6 14.2 13.7 78 2.2 SSE 24 35 13 19 1022.1 1021.9 16.8
27/07:30am 17.4 15.0 13.7 79 2.1 SSE 19 33 10 18 1021.9 1021.7 16.8
27/07:00am 17.0 14.1 14.1 83 1.7 SSE 22 32 12 17 1021.6 1021.4 16.8
27/06:30am 16.7 15.2 14.3 86 1.4 SE 15 26 8 14 1021.4 1021.2 16.8
27/06:00am 16.7 14.8 15.1 90 0.9 SSE 19 32 10 17 1021.2 1021.0 16.6
27/05:30am 17.1 16.1 14.7 86 1.4 SSE 13 28 7 15 1020.8 1020.6 16.2
27/05:00am 16.7 14.7 14.9 89 1.0 SE 19 30 10 16 1020.9 1020.7 16.0
27/04:30am 16.6 14.4 14.4 87 1.3 SSE 19 33 10 18 1020.5 1020.3 15.6
27/04:00am 16.8 15.4 14.4 86 1.4 SSE 15 24 8 13 1020.3 1020.1 15.0
27/03:30am 16.6 13.7 13.9 84 1.5 SSE 22 35 12 19 1019.9 1019.7 14.4
27/03:00am 17.0 14.4 15.0 88 1.2 SSE 22 35 12 19 1019.9 1019.7 14.0
27/02:30am 17.5 14.6 14.0 80 2.0 SSE 22 33 12 18 1019.8 1019.6 13.8
27/02:00am 17.9 15.4 14.0 78 2.2 SE 20 32 11 17 1019.9 1019.7 13.8
27/01:30am 18.0 15.8 14.5 80 2.0 SE 19 30 10 16 1020.0 1019.8 13.8
27/01:00am 17.8 15.6 14.9 83 1.7 SE 20 32 11 17 1019.9 1019.7 13.8
27/12:30am 17.4 15.4 15.6 89 1.1 SE 20 35 11 19 1020.2 1020.0 13.6
27/12:00am 17.4 14.0 15.9 91 0.9 SE 28 44 15 24 1020.2 1020.0 9.8
 
Date/Time
EDT
Temp
°C
App
Temp
°C
Dew
Point
Rel
Hum
%
Delta-T
°C
Wind Press
QNH
hPa
Press
MSL
hPa
Rain
since 9 am
mm
Dir
 
Spd
km/h
Gust
km/h
Spd
kts
Gust
kts
26/11:30pm 17.3 14.3 16.7 96 0.4 SE 28 44 15 24 1020.0 1019.8 5.6
26/11:00pm 18.0 15.1 17.0 94 0.6 SE 28 50 15 27 1019.2 1019.0 1.6
26/10:54pm 18.1 15.1 16.9 93 0.7 ESE 28 50 15 27 1018.8 1018.6 0.8
26/10:43pm 18.4 16.9 16.4 88 1.2 ESE 19 57 10 31 1018.0 1017.8 0.0
26/10:30pm 18.6 19.5 16.6 88 1.2 SE 7 22 4 12 1020.1 1019.9 0.0
26/10:00pm 19.7 21.0 17.1 85 1.6 ENE 6 7 3 4 1020.1 1019.9 0.0
26/09:30pm 19.7 20.8 17.1 85 1.6 ENE 7 9 4 5 1019.9 1019.7 0.0
26/09:00pm 19.8 20.4 16.8 83 1.8 NE 9 15 5 8 1019.4 1019.2 0.0
26/08:30pm 20.0 20.7 17.0 83 1.8 ENE 9 11 5 6 1019.3 1019.1 0.0
26/08:00pm 19.9 20.2 16.9 83 1.8 ENE 11 15 6 8 1019.2 1019.0 0.0
26/07:30pm 20.2 20.0 16.8 81 2.1 ENE 13 20 7 11 1018.9 1018.7 0.0
26/07:00pm 20.6 20.7 16.6 78 2.4 ENE 11 17 6 9 1018.5 1018.3 0.0
26/06:30pm 20.6 20.4 16.8 79 2.3 ENE 13 20 7 11 1018.0 1017.8 0.0
26/06:00pm 20.6 19.7 16.8 79 2.3 ENE 17 24 9 13 1017.7 1017.5 0.0
26/05:30pm 21.2 19.7 16.4 74 2.9 ENE 19 26 10 14 1017.3 1017.1 0.0
26/05:00pm 22.0 20.6 16.9 73 3.1 NE 20 28 11 15 1017.0 1016.8 0.0
26/04:30pm 22.5 20.9 16.5 69 3.7 NE 20 32 11 17 1016.8 1016.6 0.0
26/04:00pm 22.4 19.2 16.2 68 3.8 NE 28 43 15 23 1016.6 1016.4 0.0
26/03:30pm 23.0 19.8 16.3 66 4.1 NE 28 41 15 22 1016.3 1016.1 0.0
26/03:00pm 23.0 19.6 15.8 64 4.3 NE 28 43 15 23 1016.3 1016.1 0.0
26/02:42pm 23.2 19.1 16.0 64 4.4 NE 32 50 17 27 1016.3 1016.1 0.0
26/02:30pm 23.5 18.9 16.1 63 4.5 NNE 35 50 19 27 1016.3 1016.1 0.0
26/02:00pm 23.7 20.1 16.2 63 4.6 NE 30 44 16 24 1016.3 1016.1 0.0
26/01:30pm 23.1 18.8 15.4 62 4.6 NNE 32 46 17 25 1016.4 1016.2 0.0
26/01:00pm 22.7 18.7 15.3 63 4.4 NE 30 46 16 25 1016.8 1016.6 0.0
26/12:30pm 22.9 18.8 15.0 61 4.7 NE 30 43 16 23 1017.2 1017.0 0.0
26/12:00pm 23.4 19.6 14.7 58 5.2 NNE 28 35 15 19 1017.7 1017.5 0.0
26/11:30am 23.5 19.7 14.8 58 5.2 NNE 28 39 15 21 1018.1 1017.9 0.0
26/11:00am 22.7 18.8 14.3 59 4.9 NNE 28 39 15 21 1018.5 1018.3 0.0

Other Formats:

Comma delimited format used in spreadsheet applications
http://www.bom.gov.au/fwo/IDN60801/IDN60801.95940.axf

JavaScript Object Notation format (JSON) in row-major order
http://www.bom.gov.au/fwo/IDN60801/IDN60801.95940.json